sensor_id;sensor_type;location;lat;lon;timestamp;P1;durP1;ratioP1;P2;durP2;ratioP2
44862;SDS011;30597;49.628;10.850;2023-07-13T00:00:46;18.27;;;15.63;;
44862;SDS011;30597;49.628;10.850;2023-07-13T00:03:12;17.43;;;15.60;;
44862;SDS011;30597;49.628;10.850;2023-07-13T00:05:38;18.33;;;16.43;;
44862;SDS011;30597;49.628;10.850;2023-07-13T00:08:04;17.50;;;15.80;;
44862;SDS011;30597;49.628;10.850;2023-07-13T00:10:30;16.37;;;14.67;;
44862;SDS011;30597;49.628;10.850;2023-07-13T00:12:56;17.10;;;15.40;;
44862;SDS011;30597;49.628;10.850;2023-07-13T00:15:23;17.10;;;15.27;;
44862;SDS011;30597;49.628;10.850;2023-07-13T00:17:51;16.83;;;15.13;;
44862;SDS011;30597;49.628;10.850;2023-07-13T00:20:18;16.80;;;15.10;;
44862;SDS011;30597;49.628;10.850;2023-07-13T00:22:46;17.20;;;15.50;;
44862;SDS011;30597;49.628;10.850;2023-07-13T00:25:12;16.17;;;14.50;;
44862;SDS011;30597;49.628;10.850;2023-07-13T00:27:38;18.27;;;16.37;;
44862;SDS011;30597;49.628;10.850;2023-07-13T00:30:04;16.83;;;15.20;;
44862;SDS011;30597;49.628;10.850;2023-07-13T00:32:34;16.40;;;14.80;;
44862;SDS011;30597;49.628;10.850;2023-07-13T00:35:00;15.93;;;14.37;;
44862;SDS011;30597;49.628;10.850;2023-07-13T00:37:26;16.47;;;14.83;;
44862;SDS011;30597;49.628;10.850;2023-07-13T00:39:52;14.90;;;13.47;;
44862;SDS011;30597;49.628;10.850;2023-07-13T00:42:17;15.17;;;12.20;;
44862;SDS011;30597;49.628;10.850;2023-07-13T00:47:33;11.93;;;10.10;;
44862;SDS011;30597;49.628;10.850;2023-07-13T00:49:58;13.57;;;11.37;;
44862;SDS011;30597;49.628;10.850;2023-07-13T00:52:28;9.93;;;8.93;;
44862;SDS011;30597;49.628;10.850;2023-07-13T00:54:53;9.30;;;8.43;;
44862;SDS011;30597;49.628;10.850;2023-07-13T00:57:20;9.63;;;7.90;;
44862;SDS011;30597;49.628;10.850;2023-07-13T00:59:47;11.70;;;9.07;;
44862;SDS011;30597;49.628;10.850;2023-07-13T01:02:16;8.53;;;7.53;;
44862;SDS011;30597;49.628;10.850;2023-07-13T01:04:43;8.47;;;7.67;;
44862;SDS011;30597;49.628;10.850;2023-07-13T01:07:09;9.03;;;8.13;;
44862;SDS011;30597;49.628;10.850;2023-07-13T01:09:36;7.73;;;6.80;;
44862;SDS011;30597;49.628;10.850;2023-07-13T01:12:01;7.23;;;6.53;;
44862;SDS011;30597;49.628;10.850;2023-07-13T01:14:28;6.63;;;5.93;;
44862;SDS011;30597;49.628;10.850;2023-07-13T01:16:53;5.93;;;5.20;;
44862;SDS011;30597;49.628;10.850;2023-07-13T01:19:33;7.20;;;5.37;;
44862;SDS011;30597;49.628;10.850;2023-07-13T01:22:03;6.30;;;5.47;;
44862;SDS011;30597;49.628;10.850;2023-07-13T01:24:35;6.60;;;6.00;;
44862;SDS011;30597;49.628;10.850;2023-07-13T01:27:01;8.47;;;5.90;;
44862;SDS011;30597;49.628;10.850;2023-07-13T01:29:28;6.93;;;5.20;;
44862;SDS011;30597;49.628;10.850;2023-07-13T01:31:55;5.20;;;4.60;;
44862;SDS011;30597;49.628;10.850;2023-07-13T01:34:21;5.07;;;4.57;;
44862;SDS011;30597;49.628;10.850;2023-07-13T01:36:46;5.67;;;4.90;;
44862;SDS011;30597;49.628;10.850;2023-07-13T01:39:12;6.53;;;5.30;;
44862;SDS011;30597;49.628;10.850;2023-07-13T01:41:37;5.00;;;4.00;;
44862;SDS011;30597;49.628;10.850;2023-07-13T01:44:03;5.30;;;4.80;;
44862;SDS011;30597;49.628;10.850;2023-07-13T01:46:29;4.80;;;4.37;;
44862;SDS011;30597;49.628;10.850;2023-07-13T01:48:54;4.83;;;4.20;;
44862;SDS011;30597;49.628;10.850;2023-07-13T01:51:20;5.23;;;4.03;;
44862;SDS011;30597;49.628;10.850;2023-07-13T01:53:45;4.27;;;3.20;;
44862;SDS011;30597;49.628;10.850;2023-07-13T01:56:11;4.07;;;3.77;;
44862;SDS011;30597;49.628;10.850;2023-07-13T01:58:37;5.20;;;3.97;;
44862;SDS011;30597;49.628;10.850;2023-07-13T02:01:02;3.30;;;3.00;;
44862;SDS011;30597;49.628;10.850;2023-07-13T02:03:28;4.80;;;3.70;;
44862;SDS011;30597;49.628;10.850;2023-07-13T02:05:53;3.87;;;3.27;;
44862;SDS011;30597;49.628;10.850;2023-07-13T02:08:19;4.00;;;3.50;;
44862;SDS011;30597;49.628;10.850;2023-07-13T02:10:44;4.27;;;3.87;;
44862;SDS011;30597;49.628;10.850;2023-07-13T02:13:10;5.30;;;3.70;;
44862;SDS011;30597;49.628;10.850;2023-07-13T02:15:38;4.27;;;3.33;;
44862;SDS011;30597;49.628;10.850;2023-07-13T02:18:08;4.37;;;3.97;;
44862;SDS011;30597;49.628;10.850;2023-07-13T02:20:34;4.30;;;3.47;;
44862;SDS011;30597;49.628;10.850;2023-07-13T02:22:59;3.20;;;2.83;;
44862;SDS011;30597;49.628;10.850;2023-07-13T02:25:25;3.40;;;3.10;;
44862;SDS011;30597;49.628;10.850;2023-07-13T02:27:51;3.97;;;2.97;;
44862;SDS011;30597;49.628;10.850;2023-07-13T02:30:17;3.63;;;3.13;;
44862;SDS011;30597;49.628;10.850;2023-07-13T02:32:43;3.70;;;2.67;;
44862;SDS011;30597;49.628;10.850;2023-07-13T02:35:09;3.80;;;3.27;;
44862;SDS011;30597;49.628;10.850;2023-07-13T02:37:35;3.40;;;2.70;;
44862;SDS011;30597;49.628;10.850;2023-07-13T02:40:00;6.30;;;3.20;;
44862;SDS011;30597;49.628;10.850;2023-07-13T02:42:30;3.90;;;2.90;;
44862;SDS011;30597;49.628;10.850;2023-07-13T02:44:55;4.60;;;2.70;;
44862;SDS011;30597;49.628;10.850;2023-07-13T02:47:21;4.07;;;3.10;;
44862;SDS011;30597;49.628;10.850;2023-07-13T02:49:47;3.80;;;3.13;;
44862;SDS011;30597;49.628;10.850;2023-07-13T02:52:12;3.30;;;3.00;;
44862;SDS011;30597;49.628;10.850;2023-07-13T02:54:38;4.07;;;2.70;;
44862;SDS011;30597;49.628;10.850;2023-07-13T02:57:03;3.80;;;2.63;;
44862;SDS011;30597;49.628;10.850;2023-07-13T02:59:29;2.93;;;2.63;;
44862;SDS011;30597;49.628;10.850;2023-07-13T03:01:55;3.00;;;2.57;;
44862;SDS011;30597;49.628;10.850;2023-07-13T03:04:20;3.53;;;3.00;;
44862;SDS011;30597;49.628;10.850;2023-07-13T03:06:46;2.97;;;2.67;;
44862;SDS011;30597;49.628;10.850;2023-07-13T03:09:12;2.87;;;2.63;;
44862;SDS011;30597;49.628;10.850;2023-07-13T03:11:38;2.30;;;2.10;;
44862;SDS011;30597;49.628;10.850;2023-07-13T03:14:03;3.80;;;2.17;;
44862;SDS011;30597;49.628;10.850;2023-07-13T03:16:29;3.00;;;2.43;;
44862;SDS011;30597;49.628;10.850;2023-07-13T03:18:55;3.37;;;2.60;;
44862;SDS011;30597;49.628;10.850;2023-07-13T03:21:20;4.90;;;2.63;;
44862;SDS011;30597;49.628;10.850;2023-07-13T03:23:46;3.00;;;1.87;;
44862;SDS011;30597;49.628;10.850;2023-07-13T03:26:13;4.17;;;2.60;;
44862;SDS011;30597;49.628;10.850;2023-07-13T03:28:42;2.80;;;2.40;;
44862;SDS011;30597;49.628;10.850;2023-07-13T03:31:12;2.47;;;2.27;;
44862;SDS011;30597;49.628;10.850;2023-07-13T03:33:40;3.33;;;2.17;;
44862;SDS011;30597;49.628;10.850;2023-07-13T03:36:06;2.77;;;2.40;;
44862;SDS011;30597;49.628;10.850;2023-07-13T03:38:33;7.10;;;2.30;;
44862;SDS011;30597;49.628;10.850;2023-07-13T03:40:59;4.00;;;2.30;;
44862;SDS011;30597;49.628;10.850;2023-07-13T03:43:25;2.40;;;2.20;;
44862;SDS011;30597;49.628;10.850;2023-07-13T03:45:50;4.23;;;2.20;;
44862;SDS011;30597;49.628;10.850;2023-07-13T03:48:16;2.80;;;2.40;;
44862;SDS011;30597;49.628;10.850;2023-07-13T03:50:41;4.00;;;3.10;;
44862;SDS011;30597;49.628;10.850;2023-07-13T03:53:07;3.90;;;2.60;;
44862;SDS011;30597;49.628;10.850;2023-07-13T03:55:32;2.90;;;2.53;;
44862;SDS011;30597;49.628;10.850;2023-07-13T03:58:44;2.53;;;2.07;;
44862;SDS011;30597;49.628;10.850;2023-07-13T04:00:52;5.07;;;2.60;;
44862;SDS011;30597;49.628;10.850;2023-07-13T04:03:18;2.83;;;2.10;;
44862;SDS011;30597;49.628;10.850;2023-07-13T04:05:44;3.57;;;2.77;;
44862;SDS011;30597;49.628;10.850;2023-07-13T04:08:09;2.63;;;2.27;;
44862;SDS011;30597;49.628;10.850;2023-07-13T04:10:35;2.40;;;2.20;;
44862;SDS011;30597;49.628;10.850;2023-07-13T04:13:00;3.37;;;2.53;;
44862;SDS011;30597;49.628;10.850;2023-07-13T04:15:28;3.37;;;2.13;;
44862;SDS011;30597;49.628;10.850;2023-07-13T04:17:55;2.70;;;2.00;;
44862;SDS011;30597;49.628;10.850;2023-07-13T04:20:21;2.10;;;1.90;;
44862;SDS011;30597;49.628;10.850;2023-07-13T04:22:46;4.07;;;2.30;;
44862;SDS011;30597;49.628;10.850;2023-07-13T04:25:12;2.50;;;1.87;;
44862;SDS011;30597;49.628;10.850;2023-07-13T04:27:38;2.33;;;1.80;;
44862;SDS011;30597;49.628;10.850;2023-07-13T04:30:04;2.17;;;1.97;;
44862;SDS011;30597;49.628;10.850;2023-07-13T04:32:31;1.90;;;1.70;;
44862;SDS011;30597;49.628;10.850;2023-07-13T04:34:57;2.20;;;2.00;;
44862;SDS011;30597;49.628;10.850;2023-07-13T04:37:24;2.73;;;2.37;;
44862;SDS011;30597;49.628;10.850;2023-07-13T04:39:50;2.73;;;2.30;;
44862;SDS011;30597;49.628;10.850;2023-07-13T04:42:16;2.40;;;2.20;;
44862;SDS011;30597;49.628;10.850;2023-07-13T04:44:49;2.17;;;1.97;;
44862;SDS011;30597;49.628;10.850;2023-07-13T04:47:15;3.50;;;2.43;;
44862;SDS011;30597;49.628;10.850;2023-07-13T04:49:40;2.33;;;1.90;;
44862;SDS011;30597;49.628;10.850;2023-07-13T04:52:06;2.57;;;1.80;;
44862;SDS011;30597;49.628;10.850;2023-07-13T04:54:32;3.30;;;1.90;;
44862;SDS011;30597;49.628;10.850;2023-07-13T04:56:58;2.50;;;1.97;;
44862;SDS011;30597;49.628;10.850;2023-07-13T04:59:24;3.03;;;2.10;;
44862;SDS011;30597;49.628;10.850;2023-07-13T05:01:50;3.30;;;2.33;;
44862;SDS011;30597;49.628;10.850;2023-07-13T05:04:16;3.57;;;2.20;;
44862;SDS011;30597;49.628;10.850;2023-07-13T05:06:41;3.60;;;2.03;;
44862;SDS011;30597;49.628;10.850;2023-07-13T05:09:07;2.00;;;1.80;;
44862;SDS011;30597;49.628;10.850;2023-07-13T05:11:33;3.40;;;1.90;;
44862;SDS011;30597;49.628;10.850;2023-07-13T05:13:58;3.53;;;2.00;;
44862;SDS011;30597;49.628;10.850;2023-07-13T05:16:26;3.37;;;2.20;;
44862;SDS011;30597;49.628;10.850;2023-07-13T05:18:52;3.00;;;2.23;;
44862;SDS011;30597;49.628;10.850;2023-07-13T05:21:18;2.83;;;2.30;;
44862;SDS011;30597;49.628;10.850;2023-07-13T05:23:44;2.93;;;2.03;;
44862;SDS011;30597;49.628;10.850;2023-07-13T05:26:10;3.43;;;2.00;;
44862;SDS011;30597;49.628;10.850;2023-07-13T05:28:36;3.13;;;1.83;;
44862;SDS011;30597;49.628;10.850;2023-07-13T05:31:01;3.87;;;2.13;;
44862;SDS011;30597;49.628;10.850;2023-07-13T05:33:27;2.70;;;2.17;;
44862;SDS011;30597;49.628;10.850;2023-07-13T05:35:53;2.30;;;1.83;;
44862;SDS011;30597;49.628;10.850;2023-07-13T05:38:19;2.33;;;2.07;;
44862;SDS011;30597;49.628;10.850;2023-07-13T05:40:45;2.63;;;1.80;;
44862;SDS011;30597;49.628;10.850;2023-07-13T05:43:11;1.83;;;1.70;;
44862;SDS011;30597;49.628;10.850;2023-07-13T05:45:37;2.60;;;1.60;;
44862;SDS011;30597;49.628;10.850;2023-07-13T05:48:03;2.00;;;1.70;;
44862;SDS011;30597;49.628;10.850;2023-07-13T05:50:28;3.10;;;1.80;;
44862;SDS011;30597;49.628;10.850;2023-07-13T05:52:54;2.57;;;1.90;;
44862;SDS011;30597;49.628;10.850;2023-07-13T05:55:21;1.97;;;1.70;;
44862;SDS011;30597;49.628;10.850;2023-07-13T05:57:47;2.87;;;2.00;;
44862;SDS011;30597;49.628;10.850;2023-07-13T06:00:13;3.40;;;1.40;;
44862;SDS011;30597;49.628;10.850;2023-07-13T06:02:38;2.50;;;1.67;;
44862;SDS011;30597;49.628;10.850;2023-07-13T06:05:04;1.70;;;1.60;;
44862;SDS011;30597;49.628;10.850;2023-07-13T06:07:30;3.37;;;1.70;;
44862;SDS011;30597;49.628;10.850;2023-07-13T06:09:56;2.10;;;1.70;;
44862;SDS011;30597;49.628;10.850;2023-07-13T06:12:21;2.93;;;1.73;;
44862;SDS011;30597;49.628;10.850;2023-07-13T06:14:47;2.60;;;2.10;;
44862;SDS011;30597;49.628;10.850;2023-07-13T06:17:12;2.90;;;1.53;;
44862;SDS011;30597;49.628;10.850;2023-07-13T06:19:38;2.40;;;1.70;;
44862;SDS011;30597;49.628;10.850;2023-07-13T06:22:04;2.70;;;1.73;;
44862;SDS011;30597;49.628;10.850;2023-07-13T06:24:30;3.60;;;1.77;;
44862;SDS011;30597;49.628;10.850;2023-07-13T06:26:56;3.67;;;1.97;;
44862;SDS011;30597;49.628;10.850;2023-07-13T06:29:21;1.70;;;1.30;;
44862;SDS011;30597;49.628;10.850;2023-07-13T06:31:47;4.93;;;1.97;;
44862;SDS011;30597;49.628;10.850;2023-07-13T06:34:12;1.77;;;1.10;;
44862;SDS011;30597;49.628;10.850;2023-07-13T06:36:38;1.43;;;1.07;;
44862;SDS011;30597;49.628;10.850;2023-07-13T06:39:04;2.07;;;1.10;;
44862;SDS011;30597;49.628;10.850;2023-07-13T06:41:31;3.53;;;0.70;;
44862;SDS011;30597;49.628;10.850;2023-07-13T06:43:57;1.17;;;0.63;;
44862;SDS011;30597;49.628;10.850;2023-07-13T06:46:23;0.70;;;0.60;;
44862;SDS011;30597;49.628;10.850;2023-07-13T06:48:48;0.87;;;0.50;;
44862;SDS011;30597;49.628;10.850;2023-07-13T06:51:14;0.80;;;0.50;;
44862;SDS011;30597;49.628;10.850;2023-07-13T06:53:40;2.20;;;0.63;;
44862;SDS011;30597;49.628;10.850;2023-07-13T06:56:07;0.83;;;0.53;;
44862;SDS011;30597;49.628;10.850;2023-07-13T06:58:33;0.70;;;0.40;;
44862;SDS011;30597;49.628;10.850;2023-07-13T07:00:59;0.90;;;0.80;;
44862;SDS011;30597;49.628;10.850;2023-07-13T07:03:24;1.13;;;0.80;;
44862;SDS011;30597;49.628;10.850;2023-07-13T07:05:50;1.30;;;0.80;;
44862;SDS011;30597;49.628;10.850;2023-07-13T07:08:16;1.00;;;0.60;;
44862;SDS011;30597;49.628;10.850;2023-07-13T07:10:41;0.90;;;0.57;;
44862;SDS011;30597;49.628;10.850;2023-07-13T07:13:07;0.70;;;0.50;;
44862;SDS011;30597;49.628;10.850;2023-07-13T07:15:34;0.90;;;0.70;;
44862;SDS011;30597;49.628;10.850;2023-07-13T07:18:00;0.80;;;0.60;;
44862;SDS011;30597;49.628;10.850;2023-07-13T07:20:25;0.90;;;0.60;;
44862;SDS011;30597;49.628;10.850;2023-07-13T07:22:51;0.80;;;0.63;;
44862;SDS011;30597;49.628;10.850;2023-07-13T07:25:17;1.03;;;0.50;;
44862;SDS011;30597;49.628;10.850;2023-07-13T07:27:43;1.00;;;0.60;;
44862;SDS011;30597;49.628;10.850;2023-07-13T07:30:11;0.70;;;0.50;;
44862;SDS011;30597;49.628;10.850;2023-07-13T07:32:37;0.70;;;0.67;;
44862;SDS011;30597;49.628;10.850;2023-07-13T07:35:03;0.70;;;0.40;;
44862;SDS011;30597;49.628;10.850;2023-07-13T07:37:28;0.90;;;0.60;;
44862;SDS011;30597;49.628;10.850;2023-07-13T07:39:54;0.80;;;0.40;;
44862;SDS011;30597;49.628;10.850;2023-07-13T07:42:19;1.53;;;0.60;;
44862;SDS011;30597;49.628;10.850;2023-07-13T07:44:46;2.33;;;0.90;;
44862;SDS011;30597;49.628;10.850;2023-07-13T07:47:11;0.80;;;0.60;;
44862;SDS011;30597;49.628;10.850;2023-07-13T07:49:37;1.23;;;0.57;;
44862;SDS011;30597;49.628;10.850;2023-07-13T07:52:03;1.73;;;0.60;;
44862;SDS011;30597;49.628;10.850;2023-07-13T07:54:29;2.00;;;0.70;;
44862;SDS011;30597;49.628;10.850;2023-07-13T07:56:55;0.93;;;0.50;;
44862;SDS011;30597;49.628;10.850;2023-07-13T07:59:20;1.20;;;0.73;;
44862;SDS011;30597;49.628;10.850;2023-07-13T08:01:46;1.97;;;0.70;;
44862;SDS011;30597;49.628;10.850;2023-07-13T08:04:13;0.73;;;0.63;;
44862;SDS011;30597;49.628;10.850;2023-07-13T08:06:38;0.80;;;0.80;;
44862;SDS011;30597;49.628;10.850;2023-07-13T08:09:04;1.20;;;0.60;;
44862;SDS011;30597;49.628;10.850;2023-07-13T08:11:30;0.83;;;0.60;;
44862;SDS011;30597;49.628;10.850;2023-07-13T08:13:55;1.67;;;0.60;;
44862;SDS011;30597;49.628;10.850;2023-07-13T08:16:21;1.30;;;0.60;;
44862;SDS011;30597;49.628;10.850;2023-07-13T08:18:47;1.37;;;0.90;;
44862;SDS011;30597;49.628;10.850;2023-07-13T08:21:13;0.90;;;0.80;;
44862;SDS011;30597;49.628;10.850;2023-07-13T08:23:39;0.90;;;0.50;;
44862;SDS011;30597;49.628;10.850;2023-07-13T08:26:04;1.27;;;0.60;;
44862;SDS011;30597;49.628;10.850;2023-07-13T08:28:30;0.97;;;0.63;;
44862;SDS011;30597;49.628;10.850;2023-07-13T08:31:02;2.10;;;0.70;;
44862;SDS011;30597;49.628;10.850;2023-07-13T08:33:28;0.73;;;0.60;;
44862;SDS011;30597;49.628;10.850;2023-07-13T08:35:53;1.50;;;0.80;;
44862;SDS011;30597;49.628;10.850;2023-07-13T08:38:19;0.97;;;0.70;;
44862;SDS011;30597;49.628;10.850;2023-07-13T08:40:48;1.27;;;0.70;;
44862;SDS011;30597;49.628;10.850;2023-07-13T08:43:18;1.63;;;0.87;;
44862;SDS011;30597;49.628;10.850;2023-07-13T08:45:48;0.90;;;0.80;;
44862;SDS011;30597;49.628;10.850;2023-07-13T08:50:51;2.13;;;0.80;;
44862;SDS011;30597;49.628;10.850;2023-07-13T08:53:26;0.97;;;0.60;;
44862;SDS011;30597;49.628;10.850;2023-07-13T08:55:58;1.73;;;0.87;;
44862;SDS011;30597;49.628;10.850;2023-07-13T08:58:25;1.10;;;0.70;;
44862;SDS011;30597;49.628;10.850;2023-07-13T09:03:51;1.40;;;1.00;;
44862;SDS011;30597;49.628;10.850;2023-07-13T09:06:30;1.20;;;0.70;;
44862;SDS011;30597;49.628;10.850;2023-07-13T09:09:02;1.90;;;0.90;;
44862;SDS011;30597;49.628;10.850;2023-07-13T09:11:53;3.07;;;0.93;;
44862;SDS011;30597;49.628;10.850;2023-07-13T09:17:31;1.03;;;0.60;;
44862;SDS011;30597;49.628;10.850;2023-07-13T09:20:02;1.23;;;0.50;;
44862;SDS011;30597;49.628;10.850;2023-07-13T09:22:35;1.00;;;0.80;;
44862;SDS011;30597;49.628;10.850;2023-07-13T09:27:43;2.03;;;0.63;;
44862;SDS011;30597;49.628;10.850;2023-07-13T09:32:40;2.10;;;1.00;;
44862;SDS011;30597;49.628;10.850;2023-07-13T09:35:15;2.23;;;0.90;;
44862;SDS011;30597;49.628;10.850;2023-07-13T09:37:45;2.13;;;0.80;;
44862;SDS011;30597;49.628;10.850;2023-07-13T09:40:13;2.80;;;0.77;;
44862;SDS011;30597;49.628;10.850;2023-07-13T09:42:47;3.30;;;1.50;;
44862;SDS011;30597;49.628;10.850;2023-07-13T09:45:16;1.43;;;0.93;;
44862;SDS011;30597;49.628;10.850;2023-07-13T09:47:53;1.00;;;0.63;;
44862;SDS011;30597;49.628;10.850;2023-07-13T09:50:31;3.67;;;1.00;;
44862;SDS011;30597;49.628;10.850;2023-07-13T09:52:57;0.90;;;0.70;;
44862;SDS011;30597;49.628;10.850;2023-07-13T09:55:26;1.17;;;0.67;;
44862;SDS011;30597;49.628;10.850;2023-07-13T09:57:51;1.30;;;1.07;;
44862;SDS011;30597;49.628;10.850;2023-07-13T10:00:36;1.93;;;1.60;;
44862;SDS011;30597;49.628;10.850;2023-07-13T10:03:04;1.50;;;1.40;;
44862;SDS011;30597;49.628;10.850;2023-07-13T10:05:41;1.67;;;1.27;;
44862;SDS011;30597;49.628;10.850;2023-07-13T10:08:15;2.10;;;1.43;;
44862;SDS011;30597;49.628;10.850;2023-07-13T10:16:18;1.80;;;1.33;;
44862;SDS011;30597;49.628;10.850;2023-07-13T10:18:57;1.60;;;1.27;;
44862;SDS011;30597;49.628;10.850;2023-07-13T10:21:37;1.40;;;0.90;;
44862;SDS011;30597;49.628;10.850;2023-07-13T10:24:16;2.03;;;1.20;;
44862;SDS011;30597;49.628;10.850;2023-07-13T10:26:51;1.73;;;1.23;;
44862;SDS011;30597;49.628;10.850;2023-07-13T10:29:21;3.70;;;1.90;;
44862;SDS011;30597;49.628;10.850;2023-07-13T10:31:50;2.10;;;1.80;;
44862;SDS011;30597;49.628;10.850;2023-07-13T10:34:16;13.53;;;7.40;;
44862;SDS011;30597;49.628;10.850;2023-07-13T10:36:43;12.13;;;9.50;;
44862;SDS011;30597;49.628;10.850;2023-07-13T10:39:13;21.87;;;12.33;;
44862;SDS011;30597;49.628;10.850;2023-07-13T10:41:43;16.03;;;11.33;;
44862;SDS011;30597;49.628;10.850;2023-07-13T10:44:21;13.00;;;9.97;;
44862;SDS011;30597;49.628;10.850;2023-07-13T10:47:00;13.07;;;10.37;;
44862;SDS011;30597;49.628;10.850;2023-07-13T10:49:29;12.13;;;9.37;;
44862;SDS011;30597;49.628;10.850;2023-07-13T10:51:57;10.73;;;9.47;;
44862;SDS011;30597;49.628;10.850;2023-07-13T10:54:32;13.50;;;10.03;;
44862;SDS011;30597;49.628;10.850;2023-07-13T10:57:18;12.63;;;11.07;;
44862;SDS011;30597;49.628;10.850;2023-07-13T10:59:47;13.00;;;11.37;;
44862;SDS011;30597;49.628;10.850;2023-07-13T11:02:23;13.47;;;11.20;;
44862;SDS011;30597;49.628;10.850;2023-07-13T11:04:52;16.97;;;9.67;;
44862;SDS011;30597;49.628;10.850;2023-07-13T11:09:54;10.40;;;8.93;;
44862;SDS011;30597;49.628;10.850;2023-07-13T11:20:24;12.83;;;10.83;;
44862;SDS011;30597;49.628;10.850;2023-07-13T11:25:38;15.23;;;13.47;;
44862;SDS011;30597;49.628;10.850;2023-07-13T11:30:46;19.00;;;16.23;;
44862;SDS011;30597;49.628;10.850;2023-07-13T11:33:28;23.73;;;17.33;;
44862;SDS011;30597;49.628;10.850;2023-07-13T11:36:12;21.30;;;17.40;;
44862;SDS011;30597;49.628;10.850;2023-07-13T11:38:40;23.10;;;18.37;;
44862;SDS011;30597;49.628;10.850;2023-07-13T11:41:15;22.80;;;18.93;;
44862;SDS011;30597;49.628;10.850;2023-07-13T11:43:45;23.57;;;21.23;;
44862;SDS011;30597;49.628;10.850;2023-07-13T11:46:25;29.27;;;21.90;;
44862;SDS011;30597;49.628;10.850;2023-07-13T11:48:52;24.30;;;20.93;;
44862;SDS011;30597;49.628;10.850;2023-07-13T11:51:22;23.77;;;19.90;;
44862;SDS011;30597;49.628;10.850;2023-07-13T11:53:53;23.27;;;19.20;;
44862;SDS011;30597;49.628;10.850;2023-07-13T11:56:20;21.03;;;16.90;;
44862;SDS011;30597;49.628;10.850;2023-07-13T11:58:48;20.87;;;18.00;;
44862;SDS011;30597;49.628;10.850;2023-07-13T12:01:17;22.27;;;17.23;;
44862;SDS011;30597;49.628;10.850;2023-07-13T12:03:45;23.53;;;17.50;;
44862;SDS011;30597;49.628;10.850;2023-07-13T12:06:21;21.07;;;18.03;;
44862;SDS011;30597;49.628;10.850;2023-07-13T12:09:01;22.70;;;17.67;;
44862;SDS011;30597;49.628;10.850;2023-07-13T12:11:29;21.57;;;18.60;;
44862;SDS011;30597;49.628;10.850;2023-07-13T12:13:55;20.00;;;17.67;;
44862;SDS011;30597;49.628;10.850;2023-07-13T12:16:31;18.00;;;16.00;;
44862;SDS011;30597;49.628;10.850;2023-07-13T12:18:58;21.10;;;17.60;;
44862;SDS011;30597;49.628;10.850;2023-07-13T12:21:28;17.63;;;15.73;;
44862;SDS011;30597;49.628;10.850;2023-07-13T12:24:02;16.73;;;14.60;;
44862;SDS011;30597;49.628;10.850;2023-07-13T12:26:29;18.17;;;14.73;;
44862;SDS011;30597;49.628;10.850;2023-07-13T12:28:55;19.37;;;16.40;;
44862;SDS011;30597;49.628;10.850;2023-07-13T12:31:25;33.93;;;26.50;;
44862;SDS011;30597;49.628;10.850;2023-07-13T12:33:56;34.80;;;28.30;;
44862;SDS011;30597;49.628;10.850;2023-07-13T12:39:32;29.97;;;26.50;;
44862;SDS011;30597;49.628;10.850;2023-07-13T12:42:23;39.20;;;29.17;;
44862;SDS011;30597;49.628;10.850;2023-07-13T12:44:54;37.37;;;30.20;;
44862;SDS011;30597;49.628;10.850;2023-07-13T12:47:23;36.37;;;32.07;;
44862;SDS011;30597;49.628;10.850;2023-07-13T12:49:50;69.87;;;54.63;;
44862;SDS011;30597;49.628;10.850;2023-07-13T12:52:21;60.57;;;47.70;;
44862;SDS011;30597;49.628;10.850;2023-07-13T12:55:02;46.10;;;37.00;;
44862;SDS011;30597;49.628;10.850;2023-07-13T12:57:39;44.40;;;35.73;;
44862;SDS011;30597;49.628;10.850;2023-07-13T13:02:51;40.97;;;36.20;;
44862;SDS011;30597;49.628;10.850;2023-07-13T13:05:21;45.53;;;35.73;;
44862;SDS011;30597;49.628;10.850;2023-07-13T13:07:50;37.53;;;31.97;;
44862;SDS011;30597;49.628;10.850;2023-07-13T13:10:16;42.00;;;35.70;;
44862;SDS011;30597;49.628;10.850;2023-07-13T13:12:41;36.83;;;32.70;;
44862;SDS011;30597;49.628;10.850;2023-07-13T13:15:07;38.27;;;32.67;;
44862;SDS011;30597;49.628;10.850;2023-07-13T13:17:34;42.77;;;35.37;;
44862;SDS011;30597;49.628;10.850;2023-07-13T13:19:59;42.53;;;31.30;;
44862;SDS011;30597;49.628;10.850;2023-07-13T13:22:25;45.27;;;34.43;;
44862;SDS011;30597;49.628;10.850;2023-07-13T13:24:51;39.50;;;30.70;;
44862;SDS011;30597;49.628;10.850;2023-07-13T13:27:17;41.20;;;33.40;;
44862;SDS011;30597;49.628;10.850;2023-07-13T13:29:44;38.23;;;29.53;;
44862;SDS011;30597;49.628;10.850;2023-07-13T13:32:11;44.13;;;34.47;;
44862;SDS011;30597;49.628;10.850;2023-07-13T13:34:38;37.90;;;28.93;;
44862;SDS011;30597;49.628;10.850;2023-07-13T13:37:04;39.73;;;31.17;;
44862;SDS011;30597;49.628;10.850;2023-07-13T13:39:48;35.50;;;29.03;;
44862;SDS011;30597;49.628;10.850;2023-07-13T13:42:14;38.83;;;30.40;;
44862;SDS011;30597;49.628;10.850;2023-07-13T13:44:40;36.43;;;29.17;;
44862;SDS011;30597;49.628;10.850;2023-07-13T13:47:50;35.57;;;28.77;;
44862;SDS011;30597;49.628;10.850;2023-07-13T13:49:58;36.50;;;29.37;;
44862;SDS011;30597;49.628;10.850;2023-07-13T13:52:25;35.23;;;29.93;;
44862;SDS011;30597;49.628;10.850;2023-07-13T13:54:51;40.87;;;33.73;;
44862;SDS011;30597;49.628;10.850;2023-07-13T13:57:21;37.67;;;29.23;;
44862;SDS011;30597;49.628;10.850;2023-07-13T13:59:48;40.40;;;32.23;;
44862;SDS011;30597;49.628;10.850;2023-07-13T14:02:26;49.90;;;40.87;;
44862;SDS011;30597;49.628;10.850;2023-07-13T14:04:59;54.43;;;41.83;;
44862;SDS011;30597;49.628;10.850;2023-07-13T14:07:28;46.57;;;36.70;;
44862;SDS011;30597;49.628;10.850;2023-07-13T14:09:58;44.27;;;35.80;;
44862;SDS011;30597;49.628;10.850;2023-07-13T14:12:25;46.83;;;39.13;;
44862;SDS011;30597;49.628;10.850;2023-07-13T14:14:53;49.63;;;40.00;;
44862;SDS011;30597;49.628;10.850;2023-07-13T14:17:22;47.23;;;38.33;;
44862;SDS011;30597;49.628;10.850;2023-07-13T14:19:51;44.83;;;35.90;;
44862;SDS011;30597;49.628;10.850;2023-07-13T14:22:22;52.73;;;41.53;;
44862;SDS011;30597;49.628;10.850;2023-07-13T14:24:49;56.30;;;41.20;;
44862;SDS011;30597;49.628;10.850;2023-07-13T14:27:16;50.87;;;42.47;;
44862;SDS011;30597;49.628;10.850;2023-07-13T14:29:42;50.20;;;38.87;;
44862;SDS011;30597;49.628;10.850;2023-07-13T14:32:11;58.63;;;45.17;;
44862;SDS011;30597;49.628;10.850;2023-07-13T14:34:38;88.33;;;72.27;;
44862;SDS011;30597;49.628;10.850;2023-07-13T14:37:03;62.13;;;49.47;;
44862;SDS011;30597;49.628;10.850;2023-07-13T14:39:30;58.13;;;47.33;;
44862;SDS011;30597;49.628;10.850;2023-07-13T14:41:56;56.53;;;46.90;;
44862;SDS011;30597;49.628;10.850;2023-07-13T14:44:27;56.50;;;44.83;;
44862;SDS011;30597;49.628;10.850;2023-07-13T14:46:54;53.57;;;43.23;;
44862;SDS011;30597;49.628;10.850;2023-07-13T14:52:11;48.80;;;38.80;;
44862;SDS011;30597;49.628;10.850;2023-07-13T14:54:41;44.60;;;36.30;;
44862;SDS011;30597;49.628;10.850;2023-07-13T14:57:09;41.23;;;32.80;;
44862;SDS011;30597;49.628;10.850;2023-07-13T14:59:36;44.73;;;38.80;;
44862;SDS011;30597;49.628;10.850;2023-07-13T15:02:08;45.47;;;37.07;;
44862;SDS011;30597;49.628;10.850;2023-07-13T15:04:40;47.93;;;37.07;;
44862;SDS011;30597;49.628;10.850;2023-07-13T15:07:07;36.70;;;31.60;;
44862;SDS011;30597;49.628;10.850;2023-07-13T15:09:35;46.73;;;37.47;;
44862;SDS011;30597;49.628;10.850;2023-07-13T15:12:01;45.77;;;39.10;;
44862;SDS011;30597;49.628;10.850;2023-07-13T15:14:26;41.77;;;35.40;;
44862;SDS011;30597;49.628;10.850;2023-07-13T15:16:54;44.00;;;34.73;;